Time;durP1;ratioP1;P1;durP2;ratioP2;P2;SDS_P1;SDS_P2;PMS_P1;PMS_P2;Temp;Humidity;BMP_temperature;BMP_pressure;BME280_temperature;BME280_humidity;BME280_pressure;Samples;Min_cycle;Max_cycle;Signal;HPM_P1;HPM_P2
2021/12/22 00:00:29;;;;;;;39.20;14.90;;;;;;;-1.94;83.78;101359.15;103264;1309;26862;-66
2021/12/22 00:03:10;;;;;;;32.80;13.00;;;;;;;-1.92;83.84;101356.42;103424;1314;25989;-65
2021/12/22 00:05:45;;;;;;;38.10;14.90;;;;;;;-1.91;83.93;101358.80;103338;1310;24289;-65
2021/12/22 00:08:17;;;;;;;38.30;14.80;;;;;;;-1.90;83.83;101359.19;103224;1315;25533;-65
2021/12/22 00:10:49;;;;;;;41.10;15.50;;;;;;;-1.89;83.87;101363.13;103282;1316;22807;-65
2021/12/22 00:13:20;;;;;;;36.20;13.90;;;;;;;-1.88;83.84;101363.61;103276;1314;26984;-65
2021/12/22 00:15:51;;;;;;;40.00;13.60;;;;;;;-1.87;83.78;101363.61;103225;1310;22700;-65
2021/12/22 00:18:22;;;;;;;40.60;14.80;;;;;;;-1.87;83.77;101360.65;103461;1314;23295;-65
2021/12/22 00:20:52;;;;;;;35.60;12.70;;;;;;;-1.86;83.77;101363.02;103285;1310;22882;-65
2021/12/22 00:23:24;;;;;;;38.60;13.80;;;;;;;-1.86;83.78;101360.42;103301;1314;25556;-64
2021/12/22 00:25:55;;;;;;;37.10;13.20;;;;;;;-1.86;83.68;101359.34;103236;1316;26796;-64
2021/12/22 00:28:26;;;;;;;38.80;13.50;;;;;;;-1.86;83.75;101359.65;103413;1315;22730;-65
2021/12/22 00:30:57;;;;;;;37.10;12.80;;;;;;;-1.86;83.70;101361.45;103363;1313;22631;-65
2021/12/22 00:33:30;;;;;;;40.50;14.60;;;;;;;-1.85;83.87;101367.48;103290;1310;25432;-64
2021/12/22 00:36:01;;;;;;;32.40;11.90;;;;;;;-1.85;83.82;101364.44;103077;1316;25666;-64
2021/12/22 00:38:33;;;;;;;39.90;14.10;;;;;;;-1.85;83.92;101366.79;103291;1316;25056;-64
2021/12/22 00:41:04;;;;;;;42.60;13.50;;;;;;;-1.84;83.91;101368.42;103479;1310;22735;-64
2021/12/22 00:43:35;;;;;;;43.20;17.40;;;;;;;-1.84;83.95;101369.77;103515;1316;24579;-63
2021/12/22 00:46:07;;;;;;;38.00;15.20;;;;;;;-1.83;83.98;101369.16;103498;1315;22711;-64
2021/12/22 00:48:38;;;;;;;48.90;14.60;;;;;;;-1.81;84.01;101373.02;103233;1315;22775;-64
2021/12/22 00:51:09;;;;;;;35.10;13.60;;;;;;;-1.79;84.00;101371.64;103199;1310;25571;-64
2021/12/22 00:53:40;;;;;;;40.40;15.70;;;;;;;-1.77;83.96;101376.29;103237;1309;24042;-63
2021/12/22 00:56:11;;;;;;;40.30;14.00;;;;;;;-1.77;84.07;101377.79;103301;1315;24307;-64
2021/12/22 00:58:43;;;;;;;39.40;14.30;;;;;;;-1.76;84.10;101381.95;103221;1316;22675;-64
2021/12/22 01:01:14;;;;;;;37.80;15.00;;;;;;;-1.76;84.13;101387.03;103204;1313;22761;-64
2021/12/22 01:03:45;;;;;;;41.80;16.30;;;;;;;-1.77;84.17;101395.46;103419;1315;22692;-64
2021/12/22 01:06:15;;;;;;;37.50;14.80;;;;;;;-1.76;84.24;101396.33;103418;1313;24276;-64
2021/12/22 01:08:47;;;;;;;41.00;14.80;;;;;;;-1.80;84.26;101393.47;103254;1315;25563;-63
2021/12/22 01:11:18;;;;;;;34.70;14.10;;;;;;;-1.81;84.31;101394.45;103173;1310;22799;-64
2021/12/22 01:13:49;;;;;;;35.70;12.90;;;;;;;-1.84;84.24;101392.06;103591;1316;25820;-65
2021/12/22 01:16:20;;;;;;;33.10;14.10;;;;;;;-1.85;84.10;101394.30;103777;1316;22810;-65
2021/12/22 01:18:51;;;;;;;41.50;15.40;;;;;;;-1.87;84.19;101394.04;103276;1314;22766;-64
2021/12/22 01:21:28;;;;;;;42.60;16.70;;;;;;;-1.87;84.13;101395.59;103200;1316;22696;-64
2021/12/22 01:24:02;;;;;;;34.70;13.80;;;;;;;-1.88;84.21;101389.33;103265;1309;24282;-65
2021/12/22 01:26:40;;;;;;;44.40;16.60;;;;;;;-1.90;84.13;101398.23;103283;1310;22632;-65
2021/12/22 01:29:11;;;;;;;40.20;14.90;;;;;;;-1.90;84.11;101397.59;103324;1316;24128;-64
2021/12/22 01:31:42;;;;;;;41.30;16.50;;;;;;;-1.92;84.13;101399.36;103000;1315;378789;-64
2021/12/22 01:34:13;;;;;;;38.40;14.40;;;;;;;-1.93;84.21;101401.45;103151;1318;22683;-65
2021/12/22 01:36:46;;;;;;;41.80;16.50;;;;;;;-1.95;84.21;101400.41;103051;1319;22599;-64
2021/12/22 01:39:17;;;;;;;38.70;15.10;;;;;;;-1.96;84.20;101401.80;102957;1319;25616;-64
2021/12/22 01:41:48;;;;;;;39.10;14.90;;;;;;;-1.97;84.07;101402.64;102974;1318;22774;-64
2021/12/22 01:44:33;;;;;;;40.10;16.50;;;;;;;-2.00;84.18;101407.52;103010;1318;24304;-64
2021/12/22 01:49:56;;;;;;;39.80;16.70;;;;;;;-2.06;84.13;101407.58;103050;1314;27544;-64
2021/12/22 01:52:27;;;;;;;47.30;17.10;;;;;;;-2.09;84.02;101405.25;102852;1317;22854;-64
2021/12/22 01:55:13;;;;;;;;;;;;;;;-2.11;84.08;101405.20;102882;1317;25363;-63
2021/12/22 01:57:49;;;;;;;43.40;16.70;;;;;;;-2.15;83.95;101405.00;103043;1318;23144;-64
2021/12/22 02:00:22;;;;;;;48.00;16.40;;;;;;;-2.18;83.91;101407.14;102943;1318;22726;-65
2021/12/22 02:02:55;;;;;;;46.00;17.20;;;;;;;-2.20;83.81;101400.13;103038;1315;22544;-64
2021/12/22 02:05:26;;;;;;;41.80;16.50;;;;;;;-2.23;83.86;101402.42;103011;1317;22859;-64
2021/12/22 02:08:00;;;;;;;41.90;17.10;;;;;;;-2.26;83.79;101400.65;103307;1318;24240;-64
2021/12/22 02:10:38;;;;;;;42.10;18.70;;;;;;;-2.27;83.74;101407.43;103039;1318;25604;-63
2021/12/22 02:13:14;;;;;;;44.60;17.30;;;;;;;-2.30;83.83;101401.15;102957;1319;24329;-64
2021/12/22 02:15:47;;;;;;;50.90;18.70;;;;;;;-2.31;83.87;101404.02;103040;1318;22758;-64
2021/12/22 02:18:21;;;;;;;41.50;16.70;;;;;;;-2.32;83.82;101404.85;103030;1317;24301;-63
2021/12/22 02:20:52;;;;;;;46.70;17.50;;;;;;;-2.35;83.79;101406.66;102836;1315;25701;-64
2021/12/22 02:23:23;;;;;;;39.30;16.00;;;;;;;-2.39;83.69;101409.73;103122;1319;22670;-64
2021/12/22 02:25:59;;;;;;;45.80;17.00;;;;;;;-2.40;83.79;101410.64;103012;1318;22568;-64
2021/12/22 02:28:33;;;;;;;43.60;16.40;;;;;;;-2.40;83.96;101408.54;102951;1317;22783;-64
2021/12/22 02:31:05;;;;;;;39.00;15.50;;;;;;;-2.40;84.04;101411.19;102884;1318;22772;-63
2021/12/22 02:33:38;;;;;;;44.80;17.80;;;;;;;-2.39;84.15;101408.56;103079;1318;24333;-64
2021/12/22 02:36:22;;;;;;;48.50;17.50;;;;;;;-2.38;84.29;101405.54;102917;1317;25758;-64
2021/12/22 02:38:55;;;;;;;45.40;17.60;;;;;;;-2.37;84.25;101402.73;102941;1313;24400;-64
2021/12/22 02:41:31;;;;;;;47.20;17.70;;;;;;;-2.35;84.32;101405.18;102885;1318;23141;-64
2021/12/22 02:44:02;;;;;;;47.30;17.50;;;;;;;-2.34;84.36;101403.72;103035;1318;23153;-64
2021/12/22 02:46:36;;;;;;;39.10;16.30;;;;;;;-2.33;84.22;101410.38;103135;1318;22895;-64
2021/12/22 02:49:09;;;;;;;41.80;16.30;;;;;;;-2.33;84.27;101405.53;103038;1318;23153;-64
2021/12/22 02:51:40;;;;;;;41.30;15.40;;;;;;;-2.32;84.39;101404.45;102985;1318;23636;-65
2021/12/22 02:54:18;;;;;;;40.30;15.40;;;;;;;-2.33;84.43;101404.60;103118;1317;22630;-65
2021/12/22 02:56:57;;;;;;;37.60;15.70;;;;;;;-2.33;84.38;101406.08;102958;1318;22696;-64
2021/12/22 02:59:49;;;;;;;38.30;14.30;;;;;;;-2.32;84.31;101405.58;102879;1318;22941;-65
2021/12/22 03:02:31;;;;;;;42.30;15.40;;;;;;;-2.31;84.28;101406.90;102925;1312;23101;-64
2021/12/22 03:05:03;;;;;;;35.00;14.80;;;;;;;-2.32;84.25;101402.82;102984;1317;24458;-64
2021/12/22 03:07:35;;;;;;;36.60;15.00;;;;;;;-2.33;84.30;101406.39;103323;1319;22686;-64
2021/12/22 03:10:12;;;;;;;38.40;15.20;;;;;;;-2.35;84.22;101411.77;103172;1316;24247;-65
2021/12/22 03:12:43;;;;;;;35.40;13.80;;;;;;;-2.37;84.25;101410.00;103086;1313;23142;-65
2021/12/22 03:15:14;;;;;;;34.60;15.40;;;;;;;-2.40;84.16;101411.58;102950;1318;22753;-65
2021/12/22 03:17:45;;;;;;;41.30;14.60;;;;;;;-2.41;84.25;101417.42;102988;1318;22766;-65
2021/12/22 03:20:17;;;;;;;38.60;14.20;;;;;;;-2.41;84.22;101415.23;103186;1319;24337;-65
2021/12/22 03:22:48;;;;;;;36.60;14.10;;;;;;;-2.42;84.28;101417.86;103019;1316;27000;-64
2021/12/22 03:25:25;;;;;;;38.50;14.00;;;;;;;-2.45;84.26;101415.01;102984;1318;24434;-64
2021/12/22 03:28:03;;;;;;;31.70;12.60;;;;;;;-2.48;84.35;101420.03;102992;1312;22765;-64
2021/12/22 03:30:35;;;;;;;38.50;13.40;;;;;;;-2.52;84.44;101429.02;103684;1303;22722;-68
2021/12/22 03:33:06;;;;;;;38.00;13.40;;;;;;;-2.56;84.37;101428.94;103186;1310;22622;-68
2021/12/22 03:35:38;;;;;;;40.20;15.40;;;;;;;-2.59;84.44;101433.02;103378;1315;26862;-69
2021/12/22 03:38:09;;;;;;;39.90;14.00;;;;;;;-2.61;84.56;101440.02;103296;1317;22919;-67
2021/12/22 03:40:40;;;;;;;40.60;14.10;;;;;;;-2.63;84.65;101440.06;103107;1317;22792;-67
2021/12/22 03:43:11;;;;;;;34.30;13.00;;;;;;;-2.64;84.74;101445.58;103203;1313;25690;-68
2021/12/22 03:45:41;;;;;;;40.00;15.90;;;;;;;-2.66;84.72;101444.82;103823;1318;25650;-67
2021/12/22 03:48:16;;;;;;;34.60;14.30;;;;;;;-2.68;84.54;101442.86;103679;1316;22635;-67
2021/12/22 03:50:47;;;;;;;37.50;14.60;;;;;;;-2.70;84.55;101441.25;103663;1316;22763;-67
2021/12/22 03:53:18;;;;;;;40.40;15.00;;;;;;;-2.72;84.46;101440.35;103697;1315;25569;-68
2021/12/22 03:55:49;;;;;;;37.90;13.50;;;;;;;-2.75;84.51;101437.31;103548;1318;24318;-68
2021/12/22 03:58:20;;;;;;;42.40;14.60;;;;;;;-2.77;84.33;101436.86;103117;1314;22662;-68
2021/12/22 04:00:54;;;;;;;37.80;16.00;;;;;;;-2.78;84.33;101435.31;103326;1317;23289;-67
2021/12/22 04:03:29;;;;;;;37.30;13.90;;;;;;;-2.78;84.27;101435.61;103282;1317;25623;-67
2021/12/22 04:06:00;;;;;;;39.70;15.10;;;;;;;-2.80;84.21;101431.05;103135;1315;22852;-68
2021/12/22 04:08:31;;;;;;;37.00;14.10;;;;;;;-2.81;84.10;101435.16;103143;1316;23434;-67
2021/12/22 04:11:03;;;;;;;38.30;14.00;;;;;;;-2.82;83.89;101439.13;103264;1317;22970;-68
2021/12/22 04:13:34;;;;;;;35.00;13.10;;;;;;;-2.84;83.76;101438.37;103179;1318;24041;-67
2021/12/22 04:16:05;;;;;;;36.40;13.20;;;;;;;-2.89;83.59;101448.27;103399;1315;22536;-68
2021/12/22 04:18:37;;;;;;;36.80;12.90;;;;;;;-2.94;83.60;101446.83;103300;1316;22856;-68
2021/12/22 04:21:11;;;;;;;36.00;12.00;;;;;;;-2.97;83.56;101445.06;103156;1316;26911;-68
2021/12/22 04:23:43;;;;;;;38.50;13.60;;;;;;;-2.97;83.68;101446.61;103770;1315;22790;-68
2021/12/22 04:26:16;;;;;;;36.00;14.10;;;;;;;-2.98;83.61;101447.53;103854;1318;22846;-67
2021/12/22 04:28:49;;;;;;;35.40;12.70;;;;;;;-2.99;83.65;101447.67;103405;1315;22792;-68
2021/12/22 04:31:20;;;;;;;37.40;12.70;;;;;;;-2.98;83.78;101450.66;103151;1316;24742;-67
2021/12/22 04:33:51;;;;;;;36.20;13.60;;;;;;;-2.95;83.72;101452.66;102945;1318;22758;-67
2021/12/22 04:36:22;;;;;;;36.00;12.90;;;;;;;-2.92;83.73;101460.86;103426;1315;22977;-67
2021/12/22 04:38:57;;;;;;;35.20;12.70;;;;;;;-2.89;83.79;101466.63;103369;1315;22698;-68
2021/12/22 04:41:28;;;;;;;31.50;11.40;;;;;;;-2.88;83.80;101468.21;103384;1318;22673;-68
2021/12/22 04:43:59;;;;;;;32.40;12.30;;;;;;;-2.86;83.76;101467.84;103469;1318;22639;-68
2021/12/22 04:46:30;;;;;;;31.30;10.90;;;;;;;-2.84;83.78;101468.59;103174;1318;25679;-68
2021/12/22 04:49:01;;;;;;;35.20;12.80;;;;;;;-2.82;83.83;101471.15;103250;1315;26915;-68
2021/12/22 04:51:34;;;;;;;30.30;10.60;;;;;;;-2.79;83.88;101470.35;103511;1318;22615;-68
2021/12/22 04:54:16;;;;;;;32.50;11.30;;;;;;;-2.76;83.79;101470.39;103637;1316;22881;-68
2021/12/22 04:56:47;;;;;;;28.60;11.30;;;;;;;-2.75;83.70;101475.73;103114;1318;26249;-68
2021/12/22 04:59:18;;;;;;;31.10;11.20;;;;;;;-2.74;83.73;101473.98;103310;1313;26762;-67
2021/12/22 05:01:50;;;;;;;29.80;10.20;;;;;;;-2.72;83.71;101479.23;103109;1319;22746;-67
2021/12/22 05:04:21;;;;;;;29.40;11.00;;;;;;;-2.72;83.71;101478.62;103180;1313;22649;-68
2021/12/22 05:06:52;;;;;;;31.10;10.60;;;;;;;-2.73;83.52;101476.56;103147;1318;24244;-67
2021/12/22 05:09:23;;;;;;;29.40;9.60;;;;;;;-2.74;83.61;101476.31;103316;1317;22627;-68
2021/12/22 05:11:54;;;;;;;27.60;9.80;;;;;;;-2.74;83.69;101477.00;103581;1318;22888;-68
2021/12/22 05:14:25;;;;;;;34.40;11.60;;;;;;;-2.74;83.67;101478.10;103620;1314;22678;-68
2021/12/22 05:17:00;;;;;;;27.80;9.00;;;;;;;-2.74;83.65;101479.35;103742;1316;22739;-67
2021/12/22 05:19:32;;;;;;;32.00;11.00;;;;;;;-2.76;83.67;101479.63;103360;1315;22720;-67
2021/12/22 05:22:04;;;;;;;29.90;10.00;;;;;;;-2.75;83.74;101484.33;103350;1316;24214;-68
2021/12/22 05:24:35;;;;;;;29.60;9.10;;;;;;;-2.76;83.78;101481.66;103434;1315;25588;-67
2021/12/22 05:27:11;;;;;;;31.60;10.50;;;;;;;-2.77;83.82;101484.06;103252;1316;24565;-67
2021/12/22 05:29:42;;;;;;;28.10;8.60;;;;;;;-2.76;83.78;101485.70;103052;1316;22677;-67
2021/12/22 05:32:13;;;;;;;26.60;9.20;;;;;;;-2.75;83.76;101491.27;103308;1316;25853;-67
2021/12/22 05:34:45;;;;;;;25.60;7.60;;;;;;;-2.75;83.65;101492.13;103178;1315;25690;-67
2021/12/22 05:37:17;;;;;;;29.60;8.30;;;;;;;-2.77;83.49;101495.84;103237;1315;22883;-68
2021/12/22 05:39:50;;;;;;;24.20;6.70;;;;;;;-2.78;83.44;101495.73;103250;1315;24244;-67
2021/12/22 05:42:21;;;;;;;25.70;8.30;;;;;;;-2.78;83.53;101496.29;103179;1313;22661;-68
2021/12/22 05:44:52;;;;;;;27.20;8.20;;;;;;;-2.78;83.63;101496.13;103191;1313;22667;-67
2021/12/22 05:47:23;;;;;;;29.30;7.00;;;;;;;-2.80;83.40;101498.28;103157;1315;25602;-67
2021/12/22 05:49:55;;;;;;;22.90;6.80;;;;;;;-2.80;83.40;101495.02;103412;1317;26172;-68
2021/12/22 05:52:26;;;;;;;23.10;6.70;;;;;;;-2.80;83.08;101502.95;103397;1315;22770;-68
2021/12/22 05:54:58;;;;;;;20.30;6.50;;;;;;;-2.81;83.18;101505.20;103319;1315;25518;-68
2021/12/22 05:57:30;;;;;;;23.90;7.60;;;;;;;-2.82;83.22;101504.18;103532;1316;24532;-68
2021/12/22 06:00:01;;;;;;;21.50;6.20;;;;;;;-2.82;83.39;101502.75;104036;1313;24704;-68
2021/12/22 06:02:32;;;;;;;26.40;8.30;;;;;;;-2.83;83.41;101508.67;103767;1312;22826;-68
2021/12/22 06:05:03;;;;;;;25.60;8.30;;;;;;;-2.83;83.44;101511.00;103201;1316;22744;-68
2021/12/22 06:07:34;;;;;;;22.00;7.60;;;;;;;-2.84;83.31;101512.02;103593;1312;26843;-68
2021/12/22 06:10:05;;;;;;;21.50;6.80;;;;;;;-2.84;83.40;101512.25;103649;1314;22641;-68
2021/12/22 06:12:36;;;;;;;21.30;6.70;;;;;;;-2.84;83.18;101512.32;103635;1313;24212;-66
2021/12/22 06:15:09;;;;;;;20.70;5.70;;;;;;;-2.84;83.03;101513.33;103228;1316;23970;-66
2021/12/22 06:17:40;;;;;;;22.90;6.80;;;;;;;-2.85;83.02;101517.69;103284;1316;22576;-67
2021/12/22 06:20:13;;;;;;;24.60;7.10;;;;;;;-2.85;83.00;101522.23;103247;1315;24228;-67
2021/12/22 06:22:43;;;;;;;22.10;7.00;;;;;;;-2.84;83.00;101521.84;103407;1313;24218;-67
2021/12/22 06:25:24;;;;;;;26.40;7.10;;;;;;;-2.84;83.22;101521.53;103803;1310;22776;-68
2021/12/22 06:27:56;;;;;;;27.30;7.30;;;;;;;-2.83;83.18;101520.07;103401;1313;25462;-67
2021/12/22 06:30:27;;;;;;;21.30;6.70;;;;;;;-2.82;82.92;101525.48;103505;1316;25622;-67
2021/12/22 06:32:58;;;;;;;23.70;8.10;;;;;;;-2.81;82.89;101527.92;103551;1315;25514;-69
2021/12/22 06:35:29;;;;;;;25.20;8.50;;;;;;;-2.80;82.90;101529.03;103943;1310;22630;-68
2021/12/22 06:38:00;;;;;;;25.30;7.90;;;;;;;-2.79;82.90;101532.42;103863;1314;25540;-68
2021/12/22 06:40:31;;;;;;;25.70;6.40;;;;;;;-2.78;82.85;101533.23;103842;1315;22669;-72
2021/12/22 06:43:02;;;;;;;21.10;6.60;;;;;;;-2.78;82.72;101536.67;103867;1310;26191;-71
2021/12/22 06:45:33;;;;;;;20.90;6.10;;;;;;;-2.78;82.47;101537.90;103992;1310;25989;-73
2021/12/22 06:48:05;;;;;;;23.30;7.20;;;;;;;-2.79;82.47;101539.61;103959;1314;23807;-72
2021/12/22 06:50:37;;;;;;;23.30;7.10;;;;;;;-2.79;82.55;101540.30;103952;1309;22736;-71
2021/12/22 06:53:08;;;;;;;23.40;6.90;;;;;;;-2.78;82.54;101542.58;103693;1309;23832;-71
2021/12/22 06:55:39;;;;;;;22.60;7.50;;;;;;;-2.79;82.47;101546.94;103915;1316;22626;-72
2021/12/22 06:58:11;;;;;;;20.70;6.20;;;;;;;-2.79;82.33;101547.34;103900;1310;22760;-70
2021/12/22 07:01:06;;;;;;;19.80;6.00;;;;;;;-2.80;82.22;101548.25;104112;1309;22949;-71
2021/12/22 07:03:38;;;;;;;20.50;6.10;;;;;;;-2.81;82.05;101552.06;103356;1313;22714;-72
2021/12/22 07:06:09;;;;;;;20.50;5.20;;;;;;;-2.82;82.03;101548.69;103333;1314;22812;-71
2021/12/22 07:09:20;;;;;;;19.80;5.20;;;;;;;-2.81;82.12;101549.71;103466;1313;22735;-72
2021/12/22 07:11:55;;;;;;;18.70;5.10;;;;;;;-2.82;82.04;101545.25;102962;1324;22739;-71
2021/12/22 07:14:28;;;;;;;19.00;5.20;;;;;;;-2.83;82.00;101552.16;103266;1315;22730;-72
2021/12/22 07:16:59;;;;;;;20.80;5.90;;;;;;;-2.83;82.18;101557.47;103110;1320;22676;-71
2021/12/22 07:19:51;;;;;;;18.00;4.80;;;;;;;-2.83;82.15;101554.82;103347;1321;24209;-71
2021/12/22 07:22:22;;;;;;;21.70;6.70;;;;;;;-2.84;82.21;101555.73;103203;1316;22715;-70
2021/12/22 07:25:07;;;;;;;23.70;6.90;;;;;;;-2.85;82.14;101560.32;103544;1313;22749;-66
2021/12/22 07:27:39;;;;;;;24.80;8.00;;;;;;;-2.86;82.02;101564.98;103216;1313;25772;-70
2021/12/22 07:30:12;;;;;;;21.30;6.60;;;;;;;-2.85;82.20;101570.45;102793;1313;22746;-69
2021/12/22 07:32:44;;;;;;;23.50;7.10;;;;;;;-2.86;82.18;101570.38;103574;1310;24809;-70
2021/12/22 07:35:19;;;;;;;25.50;8.20;;;;;;;-2.86;82.42;101568.98;103091;1310;25701;-69
2021/12/22 07:38:02;;;;;;;23.10;7.50;;;;;;;-2.83;82.36;101567.55;103406;1316;22785;-69
2021/12/22 07:40:36;;;;;;;25.40;7.90;;;;;;;-2.80;82.36;101570.98;103166;1316;27299;-69
2021/12/22 07:43:08;;;;;;;30.90;9.40;;;;;;;-2.78;82.25;101573.98;103877;1313;24243;-69
2021/12/22 07:45:39;;;;;;;31.90;9.60;;;;;;;-2.76;82.15;101580.10;103273;1309;22765;-69
2021/12/22 07:48:11;;;;;;;34.50;11.10;;;;;;;-2.75;82.30;101584.20;103512;1308;26710;-70
2021/12/22 07:50:43;;;;;;;35.80;11.20;;;;;;;-2.73;82.36;101583.94;103281;1310;25571;-69
2021/12/22 07:53:14;;;;;;;37.50;13.10;;;;;;;-2.70;82.35;101583.54;103967;1314;24791;-69
2021/12/22 07:55:46;;;;;;;37.10;11.10;;;;;;;-2.68;82.31;101583.81;103764;1313;25082;-69
2021/12/22 07:58:19;;;;;;;34.80;12.20;;;;;;;-2.67;82.32;101589.54;103992;1309;22761;-69
2021/12/22 08:00:58;;;;;;;29.80;9.10;;;;;;;-2.64;82.34;101591.25;104043;1308;22694;-68
2021/12/22 08:03:31;;;;;;;36.60;11.60;;;;;;;-2.62;82.35;101589.09;103606;1310;22846;-68
2021/12/22 08:06:05;;;;;;;41.20;14.30;;;;;;;-2.59;82.37;101589.71;103781;1310;22750;-68
2021/12/22 08:08:38;;;;;;;38.70;12.00;;;;;;;-2.56;82.40;101589.79;103584;1310;22646;-72
2021/12/22 08:11:14;;;;;;;47.50;14.40;;;;;;;-2.52;82.31;101593.61;104086;1316;22799;-65
2021/12/22 08:13:45;;;;;;;43.90;14.30;;;;;;;-2.49;82.32;101595.88;104121;1310;25480;-67
2021/12/22 08:16:16;;;;;;;48.70;16.00;;;;;;;-2.46;82.15;101596.33;103796;1310;22676;-67
2021/12/22 08:18:47;;;;;;;33.40;10.30;;;;;;;-2.42;82.15;101595.85;103641;1310;22684;-67
2021/12/22 08:21:19;;;;;;;28.30;8.20;;;;;;;-2.39;82.13;101595.99;103772;1313;22608;-66
2021/12/22 08:23:52;;;;;;;29.80;10.50;;;;;;;-2.35;82.09;101597.81;103529;1309;24138;-67
2021/12/22 08:26:24;;;;;;;21.00;7.00;;;;;;;-2.34;82.06;101598.93;103455;1310;25472;-67
2021/12/22 08:28:55;;;;;;;25.50;8.90;;;;;;;-2.30;82.07;101595.95;103429;1316;22689;-66
2021/12/22 08:31:26;;;;;;;29.30;9.70;;;;;;;-2.28;81.84;101585.45;103456;1310;22651;-66
2021/12/22 08:33:58;;;;;;;25.30;8.00;;;;;;;-2.27;81.83;101594.29;103603;1315;23124;-70
2021/12/22 08:39:33;;;;;;;27.50;8.80;;;;;;;-2.29;81.67;101584.02;102785;1315;22804;-69
2021/12/22 08:42:05;;;;;;;38.50;12.10;;;;;;;-2.28;81.57;101591.07;102768;1317;23860;-69
2021/12/22 08:44:41;;;;;;;35.80;11.70;;;;;;;-2.26;81.52;101587.20;102947;1317;22844;-69
2021/12/22 08:47:14;;;;;;;27.10;8.70;;;;;;;-2.24;81.78;101588.34;103047;1315;22723;-68
2021/12/22 08:49:46;;;;;;;44.80;14.60;;;;;;;-2.21;81.59;101586.38;103021;1321;23398;-66
2021/12/22 08:52:17;;;;;;;43.30;13.90;;;;;;;-2.19;81.47;101592.44;102798;1318;24119;-69
2021/12/22 08:54:51;;;;;;;44.10;14.10;;;;;;;-2.19;81.41;101595.02;102648;1316;26808;-68
2021/12/22 08:57:23;;;;;;;32.50;9.10;;;;;;;-2.16;81.32;101604.91;102625;1319;22802;-69
2021/12/22 08:59:54;;;;;;;28.70;8.50;;;;;;;-2.17;81.01;101603.64;102719;1316;22661;-69
2021/12/22 09:02:26;;;;;;;25.40;8.70;;;;;;;-2.18;81.20;101605.04;102658;1313;25684;-69
2021/12/22 09:04:57;;;;;;;24.30;7.70;;;;;;;-2.18;81.03;101614.11;102792;1315;24218;-69
2021/12/22 09:07:31;;;;;;;24.80;7.70;;;;;;;-2.17;81.11;101608.34;102855;1315;22813;-69
2021/12/22 09:10:10;;;;;;;30.00;8.30;;;;;;;-2.16;80.89;101609.38;102747;1316;26068;-69
2021/12/22 09:12:44;;;;;;;28.60;8.40;;;;;;;-2.14;81.01;101605.98;104079;1310;23725;-70
2021/12/22 09:15:17;;;;;;;26.40;8.80;;;;;;;-2.12;81.07;101602.48;103175;1310;22735;-69
2021/12/22 09:17:48;;;;;;;24.60;7.80;;;;;;;-2.10;80.81;101606.54;103211;1314;22666;-69
2021/12/22 09:20:20;;;;;;;26.20;7.80;;;;;;;-2.08;80.70;101605.40;103161;1314;24330;-69
2021/12/22 09:22:51;;;;;;;25.20;8.50;;;;;;;-2.07;80.60;101610.96;103383;1309;22752;-69
2021/12/22 09:25:22;;;;;;;32.30;7.90;;;;;;;-2.07;80.74;101613.30;103327;1315;22769;-69
2021/12/22 09:27:54;;;;;;;27.00;8.90;;;;;;;-2.04;80.65;101611.88;103447;1309;24350;-70
2021/12/22 09:30:26;;;;;;;25.20;9.00;;;;;;;-2.01;80.77;101614.06;103051;1310;223218;-69
2021/12/22 09:32:58;;;;;;;24.00;8.30;;;;;;;-1.97;80.75;101607.10;103903;1302;22668;-64
2021/12/22 09:35:30;;;;;;;24.90;7.10;;;;;;;-1.93;80.63;101608.83;103379;1316;22607;-63
2021/12/22 09:38:01;;;;;;;28.80;7.90;;;;;;;-1.89;80.58;101603.65;105316;1318;22596;-63
2021/12/22 09:40:33;;;;;;;23.20;8.60;;;;;;;-1.86;80.53;101595.13;103149;1319;22740;-63
2021/12/22 09:43:06;;;;;;;24.20;8.30;;;;;;;-1.82;80.54;101591.05;103276;1318;25755;-63
2021/12/22 09:45:43;;;;;;;25.50;7.60;;;;;;;-1.76;80.51;101591.33;103195;1313;24072;-63
2021/12/22 09:48:27;;;;;;;22.90;7.50;;;;;;;-1.74;80.26;101586.27;103337;1315;22670;-62
2021/12/22 09:53:47;;;;;;;23.70;7.60;;;;;;;-1.68;80.31;101594.90;103150;1313;22977;-63
2021/12/22 09:56:21;;;;;;;23.10;6.80;;;;;;;-1.66;80.31;101597.22;103325;1314;22622;-63
2021/12/22 09:58:54;;;;;;;21.70;6.10;;;;;;;-1.66;79.63;101595.33;103254;1320;25793;-63
2021/12/22 10:01:26;;;;;;;21.80;6.30;;;;;;;-1.67;79.46;101589.77;103438;1319;22662;-63
2021/12/22 10:04:02;;;;;;;23.10;6.30;;;;;;;-1.67;79.18;101593.36;103114;1315;25789;-63
2021/12/22 10:06:33;;;;;;;21.80;6.20;;;;;;;-1.69;79.27;101586.90;103120;1315;22603;-62
2021/12/22 10:09:06;;;;;;;21.30;6.60;;;;;;;-1.66;79.46;101585.25;103039;1313;24819;-63
2021/12/22 10:11:45;;;;;;;22.10;6.80;;;;;;;-1.61;79.82;101586.20;103440;1313;22631;-63
2021/12/22 10:14:23;;;;;;;31.20;8.30;;;;;;;-1.56;79.78;101579.48;103448;1315;24456;-63
2021/12/22 10:16:56;;;;;;;19.90;5.70;;;;;;;-1.53;79.62;101577.02;103635;1319;24227;-60
2021/12/22 10:19:28;;;;;;;22.20;6.10;;;;;;;-1.51;79.18;101576.27;103709;1313;23185;-62
2021/12/22 10:22:02;;;;;;;22.90;6.00;;;;;;;-1.52;78.80;101573.67;103107;1315;22714;-61
2021/12/22 10:24:38;;;;;;;16.90;4.80;;;;;;;-1.47;78.89;101573.45;103265;1315;25988;-60
2021/12/22 10:27:11;;;;;;;17.90;5.90;;;;;;;-1.47;78.41;101569.78;103259;1313;24220;-60
2021/12/22 10:29:42;;;;;;;22.40;6.30;;;;;;;-1.47;78.48;101577.91;103158;1313;22828;-60
2021/12/22 10:32:16;;;;;;;22.40;5.50;;;;;;;-1.44;78.41;101581.58;103251;1319;25949;-60
2021/12/22 10:34:59;;;;;;;22.20;6.00;;;;;;;-1.41;78.37;101580.59;103200;1319;25596;-59
2021/12/22 10:37:37;;;;;;;21.30;5.60;;;;;;;-1.36;78.51;101576.45;103351;1315;25741;-61
2021/12/22 10:40:30;;;;;;;21.70;6.60;;;;;;;-1.34;78.17;101573.43;103198;1318;22636;-60
2021/12/22 10:43:04;;;;;;;20.40;6.10;;;;;;;-1.30;78.29;101570.28;103370;1313;26778;-61
2021/12/22 10:45:37;;;;;;;25.60;7.60;;;;;;;-1.29;78.16;101566.55;103022;1313;25660;-59
2021/12/22 10:51:00;;;;;;;20.70;5.70;;;;;;;-1.19;77.87;101566.32;102938;1315;22566;-61
2021/12/22 10:53:31;;;;;;;24.80;7.80;;;;;;;-1.15;77.79;101564.27;103207;1315;25578;-61
2021/12/22 10:56:03;;;;;;;19.00;5.70;;;;;;;-1.12;77.58;101561.27;102976;1320;22736;-61
2021/12/22 10:58:34;;;;;;;22.10;7.40;;;;;;;-1.08;77.65;101555.39;102915;1316;22791;-61
2021/12/22 11:01:12;;;;;;;21.20;6.40;;;;;;;-1.04;77.52;101552.85;102781;1319;26715;-61
2021/12/22 11:03:49;;;;;;;20.00;5.40;;;;;;;-1.03;77.40;101543.64;102860;1315;22783;-62
2021/12/22 11:06:25;;;;;;;20.50;5.00;;;;;;;-1.02;77.39;101547.41;102666;1313;22655;-62
2021/12/22 11:08:58;;;;;;;23.90;6.80;;;;;;;-0.99;77.51;101545.33;102907;1316;22779;-62
2021/12/22 11:11:36;;;;;;;21.90;5.60;;;;;;;-0.99;77.28;101544.87;102975;1313;22586;-62
2021/12/22 11:14:10;;;;;;;25.20;7.00;;;;;;;-0.96;77.18;101549.38;103028;1313;22646;-63
2021/12/22 11:17:00;;;;;;;27.10;8.30;;;;;;;-0.97;76.88;101555.39;103049;1318;22600;-63
2021/12/22 11:19:34;;;;;;;22.80;6.60;;;;;;;-0.98;77.06;101553.19;103117;1313;25466;-63
2021/12/22 11:22:13;;;;;;;22.70;6.00;;;;;;;-0.98;76.96;101548.71;103065;1313;22656;-63
2021/12/22 11:24:47;;;;;;;23.50;5.70;;;;;;;-1.04;76.59;101544.57;103185;1315;22884;-62
2021/12/22 11:27:20;;;;;;;20.40;5.90;;;;;;;-1.09;76.52;101544.95;103758;1315;23956;-63
2021/12/22 11:29:54;;;;;;;26.00;5.70;;;;;;;-1.11;76.98;101540.36;102825;1313;22624;-63
2021/12/22 11:32:28;;;;;;;20.10;6.20;;;;;;;-1.09;77.17;101533.91;103090;1313;23142;-63
2021/12/22 11:35:01;;;;;;;20.90;6.70;;;;;;;-1.08;77.23;101531.43;103159;1318;22552;-62
2021/12/22 11:37:33;;;;;;;21.00;5.90;;;;;;;-1.04;77.17;101528.11;103725;1318;22718;-63
2021/12/22 11:40:09;;;;;;;18.90;5.10;;;;;;;-1.05;76.20;101528.80;103007;1316;24299;-62
2021/12/22 11:42:42;;;;;;;15.80;3.80;;;;;;;-1.05;76.33;101519.88;103181;1313;22795;-63